EWG3540 EDDV-HEGN
Flight info
| Callsign | EWG3540 |
|---|---|
| Flight time | N/A |
| Altitude | 35000 |
| Route | POVEL3H/09R POVEL Y800 TADUV Z21 OSTRA DCT OMELO DCT EVIKU DCT PEPIK DCT XOMBA DCT KEROP DCT NISVA N131 RODIP UN131 KULAR UT39 TOMBI DCT PEDER M855 RASDA A16 CVO L315 SOKOT SOKOT1A |
| Aircraft | A320/M-SDE3FGHIRWY/LB1 |
Departure
| Time | 2026-05-01 09:58 |
|---|---|
| Airport | Hannover Airport (EDDV) |
Arrival
| Time | N/A |
|---|---|
| Airport | Hurghada International Airport (HEGN) |
| Time | Latitude | Longitude | Altitude | Speed | Heading |
|---|---|---|---|---|---|
| 2026-05-01 09:42 | 52.45773 | 9.69934 | 178 ft | 0 kts | 51° |
| 2026-05-01 09:49 | 52.45766 | 9.69920 | 178 ft | 2 kts | 51° |
| 2026-05-01 09:49 | 52.45756 | 9.69899 | 178 ft | 2 kts | 51° |
| 2026-05-01 09:50 | 52.45746 | 9.69878 | 178 ft | 2 kts | 51° |
| 2026-05-01 09:50 | 52.45736 | 9.69857 | 178 ft | 2 kts | 52° |
| 2026-05-01 09:50 | 52.45725 | 9.69836 | 178 ft | 2 kts | 7° |
| 2026-05-01 09:50 | 52.45708 | 9.69835 | 178 ft | 2 kts | 354° |
| 2026-05-01 09:51 | 52.45692 | 9.69840 | 178 ft | 2 kts | 329° |
| 2026-05-01 09:51 | 52.45679 | 9.69856 | 178 ft | 2 kts | 310° |
| 2026-05-01 09:51 | 52.45670 | 9.69878 | 178 ft | 2 kts | 279° |
| 2026-05-01 09:51 | 52.45669 | 9.69905 | 178 ft | 2 kts | 275° |
| 2026-05-01 09:52 | 52.45668 | 9.69932 | 178 ft | 2 kts | 272° |
| 2026-05-01 09:52 | 52.45667 | 9.69953 | 178 ft | 1 kts | 271° |
| 2026-05-01 09:52 | 52.45667 | 9.69955 | 178 ft | 0 kts | 272° |
| 2026-05-01 09:53 | 52.45668 | 9.69934 | 178 ft | 9 kts | 272° |
| 2026-05-01 09:53 | 52.45636 | 9.69825 | 178 ft | 11 kts | 202° |
| 2026-05-01 09:54 | 52.45605 | 9.69736 | 178 ft | 9 kts | 271° |
| 2026-05-01 09:54 | 52.45608 | 9.69600 | 178 ft | 17 kts | 272° |
| 2026-05-01 09:54 | 52.45613 | 9.69414 | 178 ft | 15 kts | 272° |
| 2026-05-01 09:54 | 52.45618 | 9.69253 | 178 ft | 13 kts | 272° |
| 2026-05-01 09:55 | 52.45623 | 9.69096 | 178 ft | 16 kts | 273° |
| 2026-05-01 09:55 | 52.45629 | 9.68874 | 178 ft | 21 kts | 272° |
| 2026-05-01 09:55 | 52.45635 | 9.68644 | 178 ft | 19 kts | 272° |
| 2026-05-01 09:55 | 52.45641 | 9.68443 | 178 ft | 17 kts | 273° |
| 2026-05-01 09:56 | 52.45646 | 9.68267 | 178 ft | 14 kts | 272° |
| 2026-05-01 09:56 | 52.45650 | 9.68117 | 178 ft | 12 kts | 273° |
| 2026-05-01 09:56 | 52.45656 | 9.67942 | 178 ft | 21 kts | 273° |
| 2026-05-01 09:56 | 52.45631 | 9.67738 | 179 ft | 15 kts | 224° |
| 2026-05-01 09:57 | 52.45537 | 9.67693 | 182 ft | 11 kts | 182° |
| 2026-05-01 09:57 | 52.45496 | 9.67733 | 183 ft | 6 kts | 92° |
| 2026-05-01 09:57 | 52.45494 | 9.67804 | 182 ft | 12 kts | 92° |
| 2026-05-01 09:57 | 52.45480 | 9.68282 | 181 ft | 78 kts | 92° |
| 2026-05-01 09:58 | 52.45446 | 9.69520 | 185 ft | 136 kts | 92° |
| 2026-05-01 09:58 | 52.45396 | 9.71314 | 362 ft | 169 kts | 95° |
| 2026-05-01 09:58 | 52.45334 | 9.73243 | 1032 ft | 169 kts | 95° |
| 2026-05-01 09:58 | 52.45274 | 9.75152 | 1614 ft | 168 kts | 95° |
| 2026-05-01 09:59 | 52.45213 | 9.77066 | 2178 ft | 168 kts | 95° |
| 2026-05-01 09:59 | 52.45161 | 9.78943 | 2769 ft | 169 kts | 96° |
| 2026-05-01 09:59 | 52.45109 | 9.80867 | 3433 ft | 167 kts | 96° |
| 2026-05-01 09:59 | 52.45052 | 9.82853 | 3754 ft | 184 kts | 96° |
| 2026-05-01 10:00 | 52.44987 | 9.85076 | 3924 ft | 205 kts | 96° |
| 2026-05-01 10:00 | 52.44918 | 9.87462 | 4373 ft | 212 kts | 95° |
| 2026-05-01 10:00 | 52.44849 | 9.89897 | 5069 ft | 214 kts | 96° |
| 2026-05-01 10:00 | 52.44778 | 9.92328 | 5730 ft | 214 kts | 97° |
| 2026-05-01 10:01 | 52.44450 | 9.94518 | 6294 ft | 216 kts | 117° |
| 2026-05-01 10:01 | 52.43703 | 9.96762 | 6578 ft | 236 kts | 120° |
| 2026-05-01 10:01 | 52.42844 | 9.99199 | 6907 ft | 256 kts | 120° |
| 2026-05-01 10:01 | 52.41933 | 10.01755 | 7522 ft | 262 kts | 120° |
| 2026-05-01 10:02 | 52.41012 | 10.04338 | 8224 ft | 265 kts | 120° |
| 2026-05-01 10:02 | 52.40080 | 10.06959 | 8943 ft | 267 kts | 120° |
| 2026-05-01 10:02 | 52.39136 | 10.09611 | 9686 ft | 270 kts | 119° |
| 2026-05-01 10:02 | 52.38184 | 10.12290 | 10411 ft | 273 kts | 119° |
| 2026-05-01 10:03 | 52.37221 | 10.15001 | 10756 ft | 290 kts | 119° |
| 2026-05-01 10:03 | 52.36158 | 10.17997 | 10888 ft | 313 kts | 119° |
| 2026-05-01 10:03 | 52.35039 | 10.21147 | 11241 ft | 325 kts | 119° |
| 2026-05-01 10:03 | 52.33891 | 10.24375 | 11849 ft | 329 kts | 119° |
| 2026-05-01 10:04 | 52.32751 | 10.27579 | 12459 ft | 332 kts | 120° |
| 2026-05-01 10:04 | 52.31583 | 10.30849 | 13058 ft | 335 kts | 120° |
| 2026-05-01 10:04 | 52.30395 | 10.34167 | 13703 ft | 338 kts | 120° |
| 2026-05-01 10:04 | 52.29202 | 10.37495 | 14300 ft | 341 kts | 120° |
| 2026-05-01 10:05 | 52.27991 | 10.40870 | 14823 ft | 344 kts | 120° |
| 2026-05-01 10:05 | 52.26774 | 10.44254 | 15342 ft | 347 kts | 119° |
| 2026-05-01 10:05 | 52.25561 | 10.47628 | 15861 ft | 350 kts | 119° |
| 2026-05-01 10:05 | 52.24319 | 10.51084 | 16374 ft | 353 kts | 119° |
| 2026-05-01 10:06 | 52.23070 | 10.54552 | 16883 ft | 357 kts | 119° |
| 2026-05-01 10:06 | 52.21804 | 10.58064 | 17384 ft | 360 kts | 119° |
| 2026-05-01 10:06 | 52.20529 | 10.61588 | 17877 ft | 363 kts | 119° |
| 2026-05-01 10:06 | 52.19245 | 10.65132 | 18346 ft | 366 kts | 119° |
| 2026-05-01 10:07 | 52.17936 | 10.68744 | 18816 ft | 369 kts | 119° |
| 2026-05-01 10:07 | 52.16621 | 10.72361 | 19240 ft | 372 kts | 119° |
| 2026-05-01 10:07 | 52.15297 | 10.75994 | 19654 ft | 375 kts | 119° |
| 2026-05-01 10:07 | 52.13963 | 10.79655 | 20061 ft | 378 kts | 119° |
| 2026-05-01 10:08 | 52.11221 | 10.87048 | 20876 ft | 383 kts | 121° |
| 2026-05-01 10:08 | 52.09785 | 10.90715 | 21300 ft | 385 kts | 121° |
| 2026-05-01 10:08 | 52.08317 | 10.94396 | 21720 ft | 388 kts | 121° |
| 2026-05-01 10:09 | 52.06855 | 10.98048 | 22109 ft | 391 kts | 121° |
| 2026-05-01 10:09 | 52.05372 | 11.01755 | 22482 ft | 393 kts | 121° |
| 2026-05-01 10:09 | 52.03878 | 11.05499 | 22863 ft | 396 kts | 121° |
| 2026-05-01 10:09 | 52.02383 | 11.09260 | 23234 ft | 398 kts | 121° |